AirNav   Duncan Aviation - Near you to keep you flying
 
 356 users online  

6NC0 Cox-Grantham Airfield
Grantham, North Carolina, USA

GOING TO GRANTHAM?


FAA INFORMATION EFFECTIVE 03 NOVEMBER 2022

Location

FAA Identifier: 6NC0
Lat/Long: 35-17-20.6300N 078-10-46.5400W
35-17.343833N 078-10.775667W
35.2890639,-78.1795944
(estimated)
Elevation: 157 ft. / 48 m (estimated)
Variation: 07W (1980)
From city: 1 mile SW of GRANTHAM, NC
Time zone: UTC -5 (UTC -4 during Daylight Saving Time)
Zip code: 27530

Airport Operations

Airport use: Private use. Permission required prior to landing
Activation date: 11/1986
Control tower: no
ARTCC: WASHINGTON CENTER
FSS: RALEIGH FLIGHT SERVICE STATION
Attendance: UNATNDD
Wind indicator: yes
Segmented circle: no
Lights: SS-SR
Beacon: white-green (lighted land airport)
DUSK-2300

Airport Communications

WX AWOS-3PT at GSB (11 nm E): 317.625
WX AWOS-3P at GWW (15 nm NE): 118.975 (919-731-4473)
WX AWOS-3 at JNX (18 nm NW): 120.225 (919-934-3851)
WX AWOS-3 at DPL (20 nm SE): 120.675 (910-296-9688)

Nearby radio navigation aids

VOR radial/distance  VOR name  Freq  Var
ISOr266/30.8KINSTON VORTAC117.5005W
FAYr066/38.7FAYETTEVILLE VOR/DME114.8504W

 
NDB name  Hdg/Dist  Freq  Var  ID
CLINTON034/20.941209WCTZ -.-. - --..
HARNETT118/25.741708WHQT .... --.- -

Airport Services

Runway Information

Runway 3/21

Dimensions: 2800 x 54 ft. / 853 x 16 m
Surface: turf
Runway edge lights: low intensity
RUNWAY 3  RUNWAY 21
Traffic pattern: leftleft
Displaced threshold: no670 ft.
Obstructions: nonepline

Airport Ownership and Management from official FAA records

Ownership: Privately-owned
Owner: GRANTHAM AERO CLUB INC
154 PERKINS RD
GOLDSBORO, NC 27530
Phone 919-922-5564
Manager: SHANE KILPATRICK
154 PERKINS RD
GOLDSBORO, NC 27530
Phone 919-922-5564

Airport Operational Statistics

Aircraft based on the field: 14
Single engine airplanes: 12
Helicopters: 1
Ultralights: 1
    

Additional Remarks

FOR CD CTC WASHINGTON ARTCC AT 703-771-3587.

Instrument Procedures

There are no published instrument procedures at 6NC0.

Some nearby airports with instrument procedures:

W40 - Mount Olive Municipal Airport (8 nm SE)
KGSB - Seymour Johnson Air Force Base (11 nm E)
KGWW - Wayne Executive Jetport Airport (15 nm NE)
KJNX - Johnston Regional Airport (18 nm NW)
KDPL - Duplin County Airport (20 nm SE)
 
Loc | Ops | Rwys | IFR | FBO | Links
Com | Nav | Svcs | Stats | Notes
Area around 6NC0 (Cox-Grantham Airfield)
 
Road maps at: MapQuest Bing Google
 
Aerial photo
WARNING: Photo may not be current or correct
Aerial photo of 6NC0 (Cox-Grantham Airfield)
Photo by Tim Wooten
Photo taken 28-May-2011
looking east.

Do you have a better or more recent aerial photo of Cox-Grantham Airfield that you would like to share? If so, please send us your photo.

 
Sectional chart

 
Airport distance calculator
Flying to Cox-Grantham Airfield? Find the distance to fly.

From to 6NC0

Sunrise and sunset
Times for 28-Nov-2022
 Local
(UTC-5)
 Zulu
(UTC)
Morning civil twilight06:3411:34
Sunrise07:0112:01
Sunset17:0022:00
Evening civil twilight17:2822:28

Current date and time
Zulu (UTC)  28-Nov-2022 08:38:57
Local (UTC-5)  28-Nov-2022 03:38:57
 
METAR
KGSB 
11nm E 
280755Z 22009KT 10SM CLR 14/08 A2972 RMK AO2A SLP067 T01360076 $
KGWW 
15nm NE 
280815Z AUTO 24006KT 10SM CLR 14/07 A2974 RMK AO2 T01400072
KJNX 
18nm NW 
280815Z AUTO 24004KT 10SM CLR 13/07 A2975 RMK AO2
KDPL 
20nm SE 
280815Z AUTO 24008KT 10SM CLR 14/08 A2977 RMK AO2
KCTZ 
21nm SW 
280815Z AUTO 25007KT 10SM CLR 14/10 A2978 RMK AO2 T01410095
TAF
KGSB 
11nm E 
280500Z 2805/2911 20015KT 9999 SCT030 QNH2965INS BECMG 2816/2817 23010KT 9999 BKN030 QNH2968INS BECMG 2905/2906 30006KT 9999 SCT030 QNH3000INS TX16/2818Z TN10/2812Z LAST NO AMDS AFT 2805 NEXT 2812
NOTAMs
Click for the latest NOTAMs
NOTAMs are issued by the DoD/FAA and will open in a separate window not controlled by AirNav.

 

 
 

Would you like to see your business listed on this page?

 If your business provides an interesting product or service to pilots, flight crews, aircraft, or users of the Cox-Grantham Airfield, you should consider listing it here.  To start the listing process, click on the button below
 
Add a business
 

Other Pages about Cox-Grantham Airfield

Update a link
 
Copyright © AirNav, LLC. All rights reserved. Privacy Policy  Contact